Impacts TAF Board
For situational awareness. Not to be used for flight planning purposes.
IDs:

KROW - Roswell/Ind Arpt, NM, US

Issued at 1736 UTC 08 Aug 2020
Updated at 2038 UTC 08 Aug 2020
Potential Impact None Slight Moderate High
Time1951Z 08/21Z 08/22Z 08/23Z 09/00Z 09/01Z 09/02Z 09/03Z 09/04Z 09/05Z 09/06Z 09/07Z 09/08Z 09/09Z>>
Type OBS PRVL PRVL PRVL PRVL PRVL PRVL PRVL PRVL PRVL PRVL PRVL PRVL PRVL
VIS 10 >6 >6 >6 >6 >6 >6 >6 >6 >6 >6 >6 >6 >6
CIG -- 100 100 100 100 100 100 110 110 110 110 110 110 110
Cover CLR BKN BKN BKN BKN BKN BKN BKN BKN BKN BKN BKN BKN BKN
FltCat VFR VFR VFR VFR VFR VFR VFR VFR VFR VFR VFR VFR VFR VFR
WX -- VCTS VCTS VCTS VCTS VCSH VCSH -- -- -- -- -- -- --
WDir VRB 260 260 260 260 170 170 170 170 170 170 170 170 170
WSpd 5 14 14 14 14 11 11 7 7 7 7 7 7 7
WGst 19 24 24 24 24 -- -- -- -- -- -- -- -- --
Raw TAF
KROW 081736Z 0818/0918 17010G18KT P6SM SCT100 BKN200
  FM082100 26014G24KT P6SM VCTS BKN100CB
  FM090100 17011KT P6SM VCSH BKN100
  FM090300 17007KT P6SM BKN110
  FM091200 17006KT P6SM SCT120


Raw METAR
KROW 081951Z VRB05G19KT 10SM CLR 36/10 A3007 RMK AO2 SLP105 T03610100
KROW 081851Z 26005KT 10SM CLR 35/11 A3009 RMK AO2 SLP112 T03500111
KROW 081751Z 17009KT 10SM CLR 34/13 A3011 RMK AO2 SLP120 T03390128 10344 20200 58009

METAR Board
Radar Display
Forecast Discussion
For situational awareness. Not to be used for flight planning purposes.